sensor_id;sensor_type;location;lat;lon;timestamp;temperature;humidity
47604;DHT22;33326;51.116;6.900;2023-05-10T00:04:41;14.20;99.90
47604;DHT22;33326;51.116;6.900;2023-05-10T00:09:43;14.20;99.90
47604;DHT22;33326;51.116;6.900;2023-05-10T00:14:46;14.30;99.90
47604;DHT22;33326;51.116;6.900;2023-05-10T00:19:48;14.20;99.90
47604;DHT22;33326;51.116;6.900;2023-05-10T00:24:50;14.30;99.90
47604;DHT22;33326;51.116;6.900;2023-05-10T00:29:53;14.20;99.90
47604;DHT22;33326;51.116;6.900;2023-05-10T00:34:55;14.20;99.90
47604;DHT22;33326;51.116;6.900;2023-05-10T00:39:57;14.20;99.90
47604;DHT22;33326;51.116;6.900;2023-05-10T00:45:00;14.20;99.90
47604;DHT22;33326;51.116;6.900;2023-05-10T00:50:02;14.20;99.90
47604;DHT22;33326;51.116;6.900;2023-05-10T00:55:07;14.20;99.90
47604;DHT22;33326;51.116;6.900;2023-05-10T01:00:12;14.20;99.90
47604;DHT22;33326;51.116;6.900;2023-05-10T01:05:18;14.20;99.90
47604;DHT22;33326;51.116;6.900;2023-05-10T01:10:20;14.20;99.90
47604;DHT22;33326;51.116;6.900;2023-05-10T01:15:24;14.20;99.90
47604;DHT22;33326;51.116;6.900;2023-05-10T01:20:28;14.20;99.90
47604;DHT22;33326;51.116;6.900;2023-05-10T01:36:30;14.10;99.90
47604;DHT22;33326;51.116;6.900;2023-05-10T01:41:42;14.30;99.90
47604;DHT22;33326;51.116;6.900;2023-05-10T01:46:57;14.40;99.90
47604;DHT22;33326;51.116;6.900;2023-05-10T01:52:07;14.50;99.90
47604;DHT22;33326;51.116;6.900;2023-05-10T01:57:10;14.50;99.90
47604;DHT22;33326;51.116;6.900;2023-05-10T02:02:15;14.40;99.90
47604;DHT22;33326;51.116;6.900;2023-05-10T02:07:21;14.40;99.90
47604;DHT22;33326;51.116;6.900;2023-05-10T02:12:24;14.40;99.90
47604;DHT22;33326;51.116;6.900;2023-05-10T02:17:28;14.50;99.90
47604;DHT22;33326;51.116;6.900;2023-05-10T02:22:33;14.50;99.90
47604;DHT22;33326;51.116;6.900;2023-05-10T02:27:36;14.50;99.90
47604;DHT22;33326;51.116;6.900;2023-05-10T02:32:39;14.60;99.90
47604;DHT22;33326;51.116;6.900;2023-05-10T02:37:43;14.60;99.90
47604;DHT22;33326;51.116;6.900;2023-05-10T02:42:48;14.60;99.90
47604;DHT22;33326;51.116;6.900;2023-05-10T02:47:52;14.50;99.90
47604;DHT22;33326;51.116;6.900;2023-05-10T02:53:00;14.20;99.90
47604;DHT22;33326;51.116;6.900;2023-05-10T02:58:04;14.30;99.90
47604;DHT22;33326;51.116;6.900;2023-05-10T03:03:06;14.40;99.90
47604;DHT22;33326;51.116;6.900;2023-05-10T03:08:10;14.30;99.90
47604;DHT22;33326;51.116;6.900;2023-05-10T03:13:16;14.20;99.90
47604;DHT22;33326;51.116;6.900;2023-05-10T03:18:22;14.20;99.90
47604;DHT22;33326;51.116;6.900;2023-05-10T03:23:34;14.20;99.90
47604;DHT22;33326;51.116;6.900;2023-05-10T03:28:37;14.20;99.90
47604;DHT22;33326;51.116;6.900;2023-05-10T03:33:46;14.10;99.90
47604;DHT22;33326;51.116;6.900;2023-05-10T03:38:53;14.10;99.90
47604;DHT22;33326;51.116;6.900;2023-05-10T03:43:55;14.20;99.90
47604;DHT22;33326;51.116;6.900;2023-05-10T03:48:57;14.20;99.90
47604;DHT22;33326;51.116;6.900;2023-05-10T03:54:01;14.10;99.90
47604;DHT22;33326;51.116;6.900;2023-05-10T03:59:03;14.10;99.90
47604;DHT22;33326;51.116;6.900;2023-05-10T04:04:07;14.10;99.90
47604;DHT22;33326;51.116;6.900;2023-05-10T04:09:11;14.10;99.90
47604;DHT22;33326;51.116;6.900;2023-05-10T04:14:13;14.20;99.90
47604;DHT22;33326;51.116;6.900;2023-05-10T04:19:15;14.10;99.90
47604;DHT22;33326;51.116;6.900;2023-05-10T04:24:18;14.20;99.90
47604;DHT22;33326;51.116;6.900;2023-05-10T04:29:20;14.20;99.90
47604;DHT22;33326;51.116;6.900;2023-05-10T04:34:22;14.20;99.90
47604;DHT22;33326;51.116;6.900;2023-05-10T04:39:25;14.10;99.90
47604;DHT22;33326;51.116;6.900;2023-05-10T04:44:27;14.10;99.90
47604;DHT22;33326;51.116;6.900;2023-05-10T04:49:29;14.10;99.90
47604;DHT22;33326;51.116;6.900;2023-05-10T04:54:33;14.10;99.90
47604;DHT22;33326;51.116;6.900;2023-05-10T04:59:35;14.10;99.90
47604;DHT22;33326;51.116;6.900;2023-05-10T05:04:38;14.10;99.90
47604;DHT22;33326;51.116;6.900;2023-05-10T05:09:41;14.20;99.90
47604;DHT22;33326;51.116;6.900;2023-05-10T05:14:43;14.20;99.90
47604;DHT22;33326;51.116;6.900;2023-05-10T05:19:44;14.30;99.90
47604;DHT22;33326;51.116;6.900;2023-05-10T05:24:48;14.30;99.90
47604;DHT22;33326;51.116;6.900;2023-05-10T05:29:50;14.30;99.90
47604;DHT22;33326;51.116;6.900;2023-05-10T05:34:52;14.40;99.90
47604;DHT22;33326;51.116;6.900;2023-05-10T05:39:55;14.30;99.90
47604;DHT22;33326;51.116;6.900;2023-05-10T05:44:57;14.20;99.90
47604;DHT22;33326;51.116;6.900;2023-05-10T05:49:59;14.10;99.90
47604;DHT22;33326;51.116;6.900;2023-05-10T05:55:03;14.20;99.90
47604;DHT22;33326;51.116;6.900;2023-05-10T06:00:06;14.30;99.90
47604;DHT22;33326;51.116;6.900;2023-05-10T06:05:13;14.10;99.90
47604;DHT22;33326;51.116;6.900;2023-05-10T06:10:17;14.20;99.90
47604;DHT22;33326;51.116;6.900;2023-05-10T06:15:19;14.30;99.90
47604;DHT22;33326;51.116;6.900;2023-05-10T06:20:21;14.30;99.90
47604;DHT22;33326;51.116;6.900;2023-05-10T06:25:24;14.40;99.90
47604;DHT22;33326;51.116;6.900;2023-05-10T06:30:26;14.40;99.90
47604;DHT22;33326;51.116;6.900;2023-05-10T06:35:29;14.40;99.90
47604;DHT22;33326;51.116;6.900;2023-05-10T06:40:33;14.30;99.90
47604;DHT22;33326;51.116;6.900;2023-05-10T06:45:35;14.20;99.90
47604;DHT22;33326;51.116;6.900;2023-05-10T06:50:37;14.20;99.90
47604;DHT22;33326;51.116;6.900;2023-05-10T06:55:43;14.10;99.90
47604;DHT22;33326;51.116;6.900;2023-05-10T07:00:45;14.10;99.90
47604;DHT22;33326;51.116;6.900;2023-05-10T07:05:47;14.10;99.90
47604;DHT22;33326;51.116;6.900;2023-05-10T07:10:50;14.30;99.90
47604;DHT22;33326;51.116;6.900;2023-05-10T07:15:52;14.50;99.90
47604;DHT22;33326;51.116;6.900;2023-05-10T07:20:54;14.50;99.90
47604;DHT22;33326;51.116;6.900;2023-05-10T07:25:57;14.60;99.90
47604;DHT22;33326;51.116;6.900;2023-05-10T07:31:00;14.80;99.90
47604;DHT22;33326;51.116;6.900;2023-05-10T07:36:02;14.70;99.90
47604;DHT22;33326;51.116;6.900;2023-05-10T07:41:05;14.90;99.90
47604;DHT22;33326;51.116;6.900;2023-05-10T07:46:07;14.80;99.90
47604;DHT22;33326;51.116;6.900;2023-05-10T07:51:10;14.90;99.90
47604;DHT22;33326;51.116;6.900;2023-05-10T07:56:24;14.80;99.90
47604;DHT22;33326;51.116;6.900;2023-05-10T08:01:30;14.80;99.90
47604;DHT22;33326;51.116;6.900;2023-05-10T08:06:32;15.00;99.90
47604;DHT22;33326;51.116;6.900;2023-05-10T08:11:35;14.90;99.90
47604;DHT22;33326;51.116;6.900;2023-05-10T08:16:37;14.90;99.90
47604;DHT22;33326;51.116;6.900;2023-05-10T08:21:39;14.90;99.90
47604;DHT22;33326;51.116;6.900;2023-05-10T08:26:45;14.80;99.90
47604;DHT22;33326;51.116;6.900;2023-05-10T08:31:48;15.10;99.90
47604;DHT22;33326;51.116;6.900;2023-05-10T08:36:49;15.30;99.90
47604;DHT22;33326;51.116;6.900;2023-05-10T08:41:54;15.30;99.90
47604;DHT22;33326;51.116;6.900;2023-05-10T08:47:00;15.70;99.90
47604;DHT22;33326;51.116;6.900;2023-05-10T08:52:04;15.70;99.90
47604;DHT22;33326;51.116;6.900;2023-05-10T08:57:09;16.00;99.90
47604;DHT22;33326;51.116;6.900;2023-05-10T09:02:11;16.40;99.90
47604;DHT22;33326;51.116;6.900;2023-05-10T09:07:14;16.00;99.90
47604;DHT22;33326;51.116;6.900;2023-05-10T09:12:18;15.80;99.90
47604;DHT22;33326;51.116;6.900;2023-05-10T09:17:21;15.40;99.90
47604;DHT22;33326;51.116;6.900;2023-05-10T09:22:24;15.60;99.90
47604;DHT22;33326;51.116;6.900;2023-05-10T09:27:28;15.80;99.90
47604;DHT22;33326;51.116;6.900;2023-05-10T09:32:37;15.70;99.90
47604;DHT22;33326;51.116;6.900;2023-05-10T09:37:41;15.60;99.90
47604;DHT22;33326;51.116;6.900;2023-05-10T09:42:51;15.30;99.90
47604;DHT22;33326;51.116;6.900;2023-05-10T09:47:53;15.20;99.90
47604;DHT22;33326;51.116;6.900;2023-05-10T09:52:58;15.00;99.90
47604;DHT22;33326;51.116;6.900;2023-05-10T09:58:01;14.80;99.90
47604;DHT22;33326;51.116;6.900;2023-05-10T10:03:05;14.90;99.90
47604;DHT22;33326;51.116;6.900;2023-05-10T10:08:07;15.00;99.90
47604;DHT22;33326;51.116;6.900;2023-05-10T10:13:10;15.20;99.90
47604;DHT22;33326;51.116;6.900;2023-05-10T10:18:13;15.10;99.90
47604;DHT22;33326;51.116;6.900;2023-05-10T10:23:15;15.10;99.90
47604;DHT22;33326;51.116;6.900;2023-05-10T10:28:26;15.40;99.90
47604;DHT22;33326;51.116;6.900;2023-05-10T10:33:38;15.50;99.90
47604;DHT22;33326;51.116;6.900;2023-05-10T10:39:01;15.70;99.90
47604;DHT22;33326;51.116;6.900;2023-05-10T10:44:33;15.70;99.90
47604;DHT22;33326;51.116;6.900;2023-05-10T10:49:42;15.90;99.90
47604;DHT22;33326;51.116;6.900;2023-05-10T10:54:50;16.50;99.90
47604;DHT22;33326;51.116;6.900;2023-05-10T11:00:18;17.00;99.90
47604;DHT22;33326;51.116;6.900;2023-05-10T11:05:34;16.90;99.90
47604;DHT22;33326;51.116;6.900;2023-05-10T11:10:39;16.80;99.90
47604;DHT22;33326;51.116;6.900;2023-05-10T11:15:48;17.10;99.90
47604;DHT22;33326;51.116;6.900;2023-05-10T11:20:57;17.00;99.90
47604;DHT22;33326;51.116;6.900;2023-05-10T11:26:00;17.00;99.90
47604;DHT22;33326;51.116;6.900;2023-05-10T11:31:04;16.80;99.90
47604;DHT22;33326;51.116;6.900;2023-05-10T11:36:11;17.00;99.90
47604;DHT22;33326;51.116;6.900;2023-05-10T11:41:13;16.80;99.90
47604;DHT22;33326;51.116;6.900;2023-05-10T11:46:18;17.00;99.90
47604;DHT22;33326;51.116;6.900;2023-05-10T11:51:21;16.90;99.90
47604;DHT22;33326;51.116;6.900;2023-05-10T11:56:23;16.60;99.90
47604;DHT22;33326;51.116;6.900;2023-05-10T12:01:28;16.50;99.90
47604;DHT22;33326;51.116;6.900;2023-05-10T12:06:31;16.10;99.90
47604;DHT22;33326;51.116;6.900;2023-05-10T12:11:37;15.90;99.90
47604;DHT22;33326;51.116;6.900;2023-05-10T12:16:40;16.00;99.90
47604;DHT22;33326;51.116;6.900;2023-05-10T12:21:44;16.00;99.90
47604;DHT22;33326;51.116;6.900;2023-05-10T12:26:46;16.20;99.90
47604;DHT22;33326;51.116;6.900;2023-05-10T12:31:51;16.80;99.90
47604;DHT22;33326;51.116;6.900;2023-05-10T12:36:53;17.20;99.90
47604;DHT22;33326;51.116;6.900;2023-05-10T12:41:55;17.60;99.90
47604;DHT22;33326;51.116;6.900;2023-05-10T12:46:58;17.80;99.90
47604;DHT22;33326;51.116;6.900;2023-05-10T12:52:00;18.20;99.90
47604;DHT22;33326;51.116;6.900;2023-05-10T12:57:02;18.40;99.90
47604;DHT22;33326;51.116;6.900;2023-05-10T13:02:06;18.90;99.90
47604;DHT22;33326;51.116;6.900;2023-05-10T13:07:07;19.00;99.90
47604;DHT22;33326;51.116;6.900;2023-05-10T13:12:09;18.80;99.90
47604;DHT22;33326;51.116;6.900;2023-05-10T13:17:12;18.70;99.90
47604;DHT22;33326;51.116;6.900;2023-05-10T13:22:14;18.60;99.90
47604;DHT22;33326;51.116;6.900;2023-05-10T13:27:16;18.40;99.90
47604;DHT22;33326;51.116;6.900;2023-05-10T13:32:20;18.30;99.90
47604;DHT22;33326;51.116;6.900;2023-05-10T13:37:21;18.50;99.90
47604;DHT22;33326;51.116;6.900;2023-05-10T13:42:24;18.40;99.90
47604;DHT22;33326;51.116;6.900;2023-05-10T13:47:27;18.10;99.90
47604;DHT22;33326;51.116;6.900;2023-05-10T13:52:29;17.90;99.90
47604;DHT22;33326;51.116;6.900;2023-05-10T13:57:31;17.70;99.90
47604;DHT22;33326;51.116;6.900;2023-05-10T14:02:36;17.40;99.90
47604;DHT22;33326;51.116;6.900;2023-05-10T14:07:38;17.20;99.90
47604;DHT22;33326;51.116;6.900;2023-05-10T14:12:40;17.30;99.90
47604;DHT22;33326;51.116;6.900;2023-05-10T14:17:43;17.20;99.90
47604;DHT22;33326;51.116;6.900;2023-05-10T14:22:45;17.20;99.90
47604;DHT22;33326;51.116;6.900;2023-05-10T14:27:47;17.00;99.90
47604;DHT22;33326;51.116;6.900;2023-05-10T14:32:50;17.00;99.90
47604;DHT22;33326;51.116;6.900;2023-05-10T14:37:54;16.90;99.90
47604;DHT22;33326;51.116;6.900;2023-05-10T14:42:56;17.10;99.90
47604;DHT22;33326;51.116;6.900;2023-05-10T14:47:59;17.20;99.90
47604;DHT22;33326;51.116;6.900;2023-05-10T14:53:01;17.30;99.90
47604;DHT22;33326;51.116;6.900;2023-05-10T14:58:03;17.40;99.90
47604;DHT22;33326;51.116;6.900;2023-05-10T15:03:06;19.00;99.90
47604;DHT22;33326;51.116;6.900;2023-05-10T15:08:08;20.10;99.90
47604;DHT22;33326;51.116;6.900;2023-05-10T15:13:10;20.10;99.90
47604;DHT22;33326;51.116;6.900;2023-05-10T15:18:13;20.70;99.90
47604;DHT22;33326;51.116;6.900;2023-05-10T15:23:15;23.20;99.90
47604;DHT22;33326;51.116;6.900;2023-05-10T15:28:17;25.00;99.90
47604;DHT22;33326;51.116;6.900;2023-05-10T15:33:20;25.40;99.90
47604;DHT22;33326;51.116;6.900;2023-05-10T15:38:22;28.10;99.90
47604;DHT22;33326;51.116;6.900;2023-05-10T15:43:24;27.60;92.70
47604;DHT22;33326;51.116;6.900;2023-05-10T15:48:27;27.50;92.80
47604;DHT22;33326;51.116;6.900;2023-05-10T15:53:31;24.60;95.20
47604;DHT22;33326;51.116;6.900;2023-05-10T15:58:33;24.10;99.00
47604;DHT22;33326;51.116;6.900;2023-05-10T16:03:37;23.50;99.90
47604;DHT22;33326;51.116;6.900;2023-05-10T16:08:39;22.60;99.90
47604;DHT22;33326;51.116;6.900;2023-05-10T16:13:40;21.60;99.90
47604;DHT22;33326;51.116;6.900;2023-05-10T16:18:44;21.00;99.90
47604;DHT22;33326;51.116;6.900;2023-05-10T16:23:45;21.00;99.90
47604;DHT22;33326;51.116;6.900;2023-05-10T16:28:47;21.00;99.90
47604;DHT22;33326;51.116;6.900;2023-05-10T16:33:51;20.70;99.90
47604;DHT22;33326;51.116;6.900;2023-05-10T16:38:52;20.00;99.90
47604;DHT22;33326;51.116;6.900;2023-05-10T16:43:55;19.70;99.90
47604;DHT22;33326;51.116;6.900;2023-05-10T16:48:59;19.30;99.90
47604;DHT22;33326;51.116;6.900;2023-05-10T16:54:00;19.30;99.90
47604;DHT22;33326;51.116;6.900;2023-05-10T16:59:02;19.40;99.90
47604;DHT22;33326;51.116;6.900;2023-05-10T17:04:06;19.10;99.90
47604;DHT22;33326;51.116;6.900;2023-05-10T17:09:08;18.80;99.90
47604;DHT22;33326;51.116;6.900;2023-05-10T17:14:11;18.50;99.90
47604;DHT22;33326;51.116;6.900;2023-05-10T17:19:14;18.40;99.90
47604;DHT22;33326;51.116;6.900;2023-05-10T17:24:16;18.20;99.90
47604;DHT22;33326;51.116;6.900;2023-05-10T17:29:18;18.00;99.90
47604;DHT22;33326;51.116;6.900;2023-05-10T17:34:21;17.70;99.90
47604;DHT22;33326;51.116;6.900;2023-05-10T17:39:23;17.50;99.90
47604;DHT22;33326;51.116;6.900;2023-05-10T17:44:25;17.40;99.90
47604;DHT22;33326;51.116;6.900;2023-05-10T17:49:29;17.30;99.90
47604;DHT22;33326;51.116;6.900;2023-05-10T17:54:30;17.40;99.90
47604;DHT22;33326;51.116;6.900;2023-05-10T17:59:32;17.30;99.90
47604;DHT22;33326;51.116;6.900;2023-05-10T18:04:37;17.20;99.90
47604;DHT22;33326;51.116;6.900;2023-05-10T18:09:39;17.10;99.90
47604;DHT22;33326;51.116;6.900;2023-05-10T18:14:41;17.20;99.90
47604;DHT22;33326;51.116;6.900;2023-05-10T18:19:44;17.30;99.90
47604;DHT22;33326;51.116;6.900;2023-05-10T18:24:46;17.40;99.90
47604;DHT22;33326;51.116;6.900;2023-05-10T18:29:48;17.30;99.90
47604;DHT22;33326;51.116;6.900;2023-05-10T18:34:51;17.10;99.90
47604;DHT22;33326;51.116;6.900;2023-05-10T18:39:53;17.00;99.90
47604;DHT22;33326;51.116;6.900;2023-05-10T18:44:55;16.90;99.90
47604;DHT22;33326;51.116;6.900;2023-05-10T18:49:59;16.90;99.90
47604;DHT22;33326;51.116;6.900;2023-05-10T18:55:00;16.70;99.90
47604;DHT22;33326;51.116;6.900;2023-05-10T19:00:03;16.60;99.90
47604;DHT22;33326;51.116;6.900;2023-05-10T19:05:07;16.50;99.90
47604;DHT22;33326;51.116;6.900;2023-05-10T19:10:10;16.40;99.90
47604;DHT22;33326;51.116;6.900;2023-05-10T19:15:13;16.40;99.90
47604;DHT22;33326;51.116;6.900;2023-05-10T19:20:16;16.40;99.90
47604;DHT22;33326;51.116;6.900;2023-05-10T19:25:18;16.20;99.90
47604;DHT22;33326;51.116;6.900;2023-05-10T19:30:20;16.20;99.90
47604;DHT22;33326;51.116;6.900;2023-05-10T19:35:23;16.10;99.90
47604;DHT22;33326;51.116;6.900;2023-05-10T19:40:25;15.80;99.90
47604;DHT22;33326;51.116;6.900;2023-05-10T19:45:27;15.90;99.90
47604;DHT22;33326;51.116;6.900;2023-05-10T19:50:30;15.90;99.90
47604;DHT22;33326;51.116;6.900;2023-05-10T19:55:32;16.10;99.90
47604;DHT22;33326;51.116;6.900;2023-05-10T20:00:35;16.10;99.90
47604;DHT22;33326;51.116;6.900;2023-05-10T20:05:38;16.00;99.90
47604;DHT22;33326;51.116;6.900;2023-05-10T20:10:40;15.90;99.90
47604;DHT22;33326;51.116;6.900;2023-05-10T20:15:42;15.90;99.90
47604;DHT22;33326;51.116;6.900;2023-05-10T20:20:45;15.80;99.90
47604;DHT22;33326;51.116;6.900;2023-05-10T20:25:47;15.90;99.90
47604;DHT22;33326;51.116;6.900;2023-05-10T20:30:51;15.80;99.90
47604;DHT22;33326;51.116;6.900;2023-05-10T20:35:55;15.80;99.90
47604;DHT22;33326;51.116;6.900;2023-05-10T20:40:57;15.80;99.90
47604;DHT22;33326;51.116;6.900;2023-05-10T20:45:59;15.90;99.90
47604;DHT22;33326;51.116;6.900;2023-05-10T20:51:06;15.80;99.90
47604;DHT22;33326;51.116;6.900;2023-05-10T20:56:07;15.80;99.90
47604;DHT22;33326;51.116;6.900;2023-05-10T21:01:10;15.70;99.90
47604;DHT22;33326;51.116;6.900;2023-05-10T21:06:13;15.60;99.90
47604;DHT22;33326;51.116;6.900;2023-05-10T21:11:14;15.50;99.90
47604;DHT22;33326;51.116;6.900;2023-05-10T21:16:16;15.50;99.90
47604;DHT22;33326;51.116;6.900;2023-05-10T21:21:19;15.60;99.90
47604;DHT22;33326;51.116;6.900;2023-05-10T21:26:21;15.60;99.90
47604;DHT22;33326;51.116;6.900;2023-05-10T21:31:23;15.50;99.90
47604;DHT22;33326;51.116;6.900;2023-05-10T21:36:26;15.40;99.90
47604;DHT22;33326;51.116;6.900;2023-05-10T21:41:28;15.30;99.90
47604;DHT22;33326;51.116;6.900;2023-05-10T21:46:30;15.30;99.90
47604;DHT22;33326;51.116;6.900;2023-05-10T21:51:33;15.40;99.90
47604;DHT22;33326;51.116;6.900;2023-05-10T21:56:35;15.40;99.90
47604;DHT22;33326;51.116;6.900;2023-05-10T22:01:37;15.10;99.90
47604;DHT22;33326;51.116;6.900;2023-05-10T22:06:40;15.10;99.90
47604;DHT22;33326;51.116;6.900;2023-05-10T22:11:42;15.20;99.90
47604;DHT22;33326;51.116;6.900;2023-05-10T22:16:43;15.10;99.90
47604;DHT22;33326;51.116;6.900;2023-05-10T22:21:47;15.10;99.90
47604;DHT22;33326;51.116;6.900;2023-05-10T22:26:48;15.10;99.90
47604;DHT22;33326;51.116;6.900;2023-05-10T22:31:51;15.20;99.90
47604;DHT22;33326;51.116;6.900;2023-05-10T22:36:55;15.20;99.90
47604;DHT22;33326;51.116;6.900;2023-05-10T22:41:58;15.00;99.90
47604;DHT22;33326;51.116;6.900;2023-05-10T22:46:59;15.00;99.90
47604;DHT22;33326;51.116;6.900;2023-05-10T22:52:03;15.10;99.90
47604;DHT22;33326;51.116;6.900;2023-05-10T22:57:05;15.10;99.90
47604;DHT22;33326;51.116;6.900;2023-05-10T23:02:07;15.30;99.90
47604;DHT22;33326;51.116;6.900;2023-05-10T23:07:10;15.40;99.90
47604;DHT22;33326;51.116;6.900;2023-05-10T23:12:12;15.20;99.90
47604;DHT22;33326;51.116;6.900;2023-05-10T23:17:13;15.20;99.90
47604;DHT22;33326;51.116;6.900;2023-05-10T23:22:17;15.10;99.90
47604;DHT22;33326;51.116;6.900;2023-05-10T23:27:19;15.00;99.90
47604;DHT22;33326;51.116;6.900;2023-05-10T23:32:21;15.00;99.90
47604;DHT22;33326;51.116;6.900;2023-05-10T23:37:24;15.10;99.90
47604;DHT22;33326;51.116;6.900;2023-05-10T23:42:27;15.00;99.90
47604;DHT22;33326;51.116;6.900;2023-05-10T23:47:29;15.00;99.90
47604;DHT22;33326;51.116;6.900;2023-05-10T23:52:32;15.00;99.90
47604;DHT22;33326;51.116;6.900;2023-05-10T23:57:34;15.00;99.90
